createdAt,value
2022-09-22T00:01:29.225Z,1.67
2022-09-22T00:03:59.203Z,1.80
2022-09-22T00:06:34.741Z,1.63
2022-09-22T00:09:05.369Z,1.77
2022-09-22T00:11:43.790Z,2.10
2022-09-22T00:14:14.489Z,1.70
2022-09-22T00:16:51.882Z,1.50
2022-09-22T00:19:23.386Z,1.83
2022-09-22T00:21:50.768Z,1.47
2022-09-22T00:24:19.432Z,1.53
2022-09-22T00:26:52.548Z,1.57
2022-09-22T00:29:19.227Z,1.57
2022-09-22T00:31:47.796Z,1.70
2022-09-22T00:34:20.996Z,1.57
2022-09-22T00:36:48.383Z,1.67
2022-09-22T00:39:18.679Z,1.50
2022-09-22T00:41:52.481Z,1.60
2022-09-22T00:44:42.763Z,1.60
2022-09-22T00:47:20.095Z,1.67
2022-09-22T00:50:25.276Z,1.83
2022-09-22T00:53:06.041Z,1.30
2022-09-22T00:55:48.162Z,1.40
2022-09-22T00:58:20.883Z,1.40
2022-09-22T01:00:47.688Z,1.20
2022-09-22T01:03:27.514Z,1.50
2022-09-22T01:06:01.439Z,1.60
2022-09-22T01:08:29.935Z,1.70
2022-09-22T01:10:59.518Z,1.40
2022-09-22T01:13:38.090Z,1.37
2022-09-22T01:16:39.339Z,1.57
2022-09-22T01:19:27.803Z,1.60
2022-09-22T01:22:04.898Z,1.47
2022-09-22T01:24:46.751Z,1.27
2022-09-22T01:27:50.390Z,1.83
2022-09-22T01:30:30.388Z,1.30
2022-09-22T01:33:06.441Z,1.60
2022-09-22T01:36:11.077Z,1.67
2022-09-22T01:39:01.613Z,1.50
2022-09-22T01:42:03.593Z,1.73
2022-09-22T01:44:37.306Z,1.40
2022-09-22T01:47:09.258Z,1.30
2022-09-22T01:49:40.031Z,1.40
2022-09-22T01:52:12.671Z,1.50
2022-09-22T01:54:45.434Z,1.40
2022-09-22T01:57:17.641Z,1.50
2022-09-22T01:59:50.488Z,1.40
2022-09-22T02:02:28.850Z,1.37
2022-09-22T02:05:00.100Z,1.63
2022-09-22T02:07:33.876Z,1.40
2022-09-22T02:10:05.262Z,1.20
2022-09-22T02:12:31.890Z,1.30
2022-09-22T02:14:58.618Z,1.37
2022-09-22T02:17:25.251Z,1.07
2022-09-22T02:19:52.375Z,1.40
2022-09-22T02:22:19.157Z,1.30
2022-09-22T02:24:46.833Z,1.40
2022-09-22T02:27:26.956Z,1.23
2022-09-22T02:30:05.278Z,1.20
2022-09-22T02:32:34.549Z,1.00
2022-09-22T02:35:02.147Z,1.37
2022-09-22T02:37:47.580Z,1.27
2022-09-22T02:40:31.991Z,1.13
2022-09-22T02:43:01.277Z,1.00
2022-09-22T02:45:43.316Z,1.13
2022-09-22T02:48:23.062Z,1.10
2022-09-22T02:50:50.498Z,1.30
2022-09-22T02:53:18.231Z,1.40
2022-09-22T02:55:46.153Z,1.17
2022-09-22T02:58:16.671Z,1.10
2022-09-22T03:00:45.343Z,1.37
2022-09-22T03:03:12.290Z,1.30
2022-09-22T03:05:39.241Z,1.10
2022-09-22T03:08:06.150Z,1.00
2022-09-22T03:10:33.109Z,1.10
2022-09-22T03:13:16.844Z,1.03
2022-09-22T03:15:46.977Z,1.27
2022-09-22T03:18:14.294Z,1.10
2022-09-22T03:20:41.606Z,1.30
2022-09-22T03:23:08.428Z,1.30
2022-09-22T03:25:35.118Z,1.20
2022-09-22T03:28:02.163Z,0.93
2022-09-22T03:30:28.885Z,1.20
2022-09-22T03:32:55.457Z,0.90
2022-09-22T03:35:22.188Z,1.17
2022-09-22T03:37:48.843Z,1.30
2022-09-22T03:40:15.687Z,1.20
2022-09-22T03:42:42.450Z,1.20
2022-09-22T03:45:09.759Z,1.07
2022-09-22T03:47:36.360Z,1.60
2022-09-22T03:50:03.100Z,1.33
2022-09-22T03:52:29.868Z,1.20
2022-09-22T03:54:56.462Z,1.10
2022-09-22T03:57:23.074Z,1.33
2022-09-22T03:59:49.849Z,1.20
2022-09-22T04:02:17.004Z,1.40
2022-09-22T04:04:43.798Z,1.13
2022-09-22T04:07:10.454Z,1.13
2022-09-22T04:09:37.090Z,1.10
2022-09-22T04:12:03.933Z,1.07
2022-09-22T04:14:31.004Z,1.43
2022-09-22T04:16:57.658Z,1.17
2022-09-22T04:19:24.362Z,1.30
2022-09-22T04:21:56.249Z,1.00
2022-09-22T04:24:24.621Z,1.30
2022-09-22T04:27:18.077Z,1.20
2022-09-22T04:29:38.402Z,1.00
2022-09-22T04:32:05.507Z,1.00
2022-09-22T04:34:32.266Z,1.13
2022-09-22T04:36:59.112Z,1.10
2022-09-22T04:39:28.559Z,1.30
2022-09-22T04:41:55.842Z,0.90
2022-09-22T04:44:22.639Z,1.13
2022-09-22T04:46:50.251Z,1.20
2022-09-22T04:49:17.898Z,1.07
2022-09-22T04:51:44.720Z,0.90
2022-09-22T04:54:11.431Z,1.20
2022-09-22T04:56:38.176Z,1.27
2022-09-22T04:59:04.770Z,1.00
2022-09-22T05:01:31.451Z,1.07
2022-09-22T05:03:58.054Z,0.90
2022-09-22T05:06:24.739Z,1.27
2022-09-22T05:08:51.338Z,1.00
2022-09-22T05:11:19.222Z,1.00
2022-09-22T05:13:46.345Z,1.00
2022-09-22T05:16:13.076Z,1.57
2022-09-22T05:18:39.873Z,1.10
2022-09-22T05:21:07.327Z,1.40
2022-09-22T05:23:34.258Z,1.13
2022-09-22T05:26:01.046Z,1.13
2022-09-22T05:28:27.775Z,1.40
2022-09-22T05:30:54.374Z,1.60
2022-09-22T05:33:21.020Z,1.27
2022-09-22T05:35:47.686Z,1.67
2022-09-22T05:38:14.286Z,1.60
2022-09-22T05:40:41.133Z,1.43
2022-09-22T05:43:07.819Z,1.33
2022-09-22T05:45:34.501Z,1.83
2022-09-22T05:48:01.343Z,1.80
2022-09-22T05:50:28.047Z,1.60
2022-09-22T05:53:09.561Z,1.87
2022-09-22T05:55:38.765Z,1.63
2022-09-22T05:58:05.669Z,1.60
2022-09-22T06:00:32.897Z,1.50
2022-09-22T06:02:59.609Z,1.43
2022-09-22T06:05:26.410Z,1.77
2022-09-22T06:08:03.635Z,1.60
2022-09-22T06:10:31.827Z,1.53
2022-09-22T06:13:06.566Z,2.00
2022-09-22T06:15:36.473Z,1.97
2022-09-22T06:18:07.413Z,1.90
2022-09-22T06:20:34.974Z,1.73
2022-09-22T06:23:02.205Z,1.57
2022-09-22T06:25:29.278Z,1.50
2022-09-22T06:28:05.286Z,1.90
2022-09-22T06:30:33.487Z,1.70
2022-09-22T06:33:00.546Z,1.60
2022-09-22T06:35:35.415Z,1.90
2022-09-22T06:38:02.256Z,1.57
2022-09-22T06:40:29.324Z,1.60
2022-09-22T06:43:10.621Z,1.53
2022-09-22T06:45:41.445Z,1.70
2022-09-22T06:48:10.978Z,1.77
2022-09-22T06:50:38.324Z,1.60
2022-09-22T06:53:09.558Z,1.80
2022-09-22T06:55:36.265Z,2.00
2022-09-22T06:58:03.361Z,2.03
2022-09-22T07:00:32.898Z,1.87
2022-09-22T07:03:25.531Z,1.80
2022-09-22T07:06:03.706Z,1.50
2022-09-22T07:08:33.199Z,1.40
2022-09-22T07:11:02.510Z,1.37
2022-09-22T07:13:30.670Z,1.67
2022-09-22T07:16:01.913Z,1.20
2022-09-22T07:18:29.962Z,1.20
2022-09-22T07:21:11.897Z,1.10
2022-09-22T07:23:40.895Z,1.30
2022-09-22T07:26:14.524Z,0.90
2022-09-22T07:28:41.745Z,0.80
2022-09-22T07:31:13.210Z,0.70
2022-09-22T07:33:42.678Z,0.67
2022-09-22T07:36:15.771Z,0.60
2022-09-22T07:38:44.590Z,0.80
2022-09-22T07:41:13.965Z,0.70
2022-09-22T07:43:41.828Z,0.60
2022-09-22T07:46:09.177Z,0.53
2022-09-22T07:48:46.953Z,0.60
2022-09-22T07:51:20.654Z,0.50
2022-09-22T07:53:54.367Z,0.60
2022-09-22T07:56:24.022Z,0.67
2022-09-22T07:58:53.499Z,0.60
2022-09-22T08:01:22.439Z,0.60
2022-09-22T08:03:49.321Z,0.53
2022-09-22T08:06:18.499Z,0.50
2022-09-22T08:08:47.781Z,0.60
2022-09-22T08:11:17.491Z,0.50
2022-09-22T08:13:53.811Z,0.60
2022-09-22T08:16:23.114Z,0.47
2022-09-22T08:18:56.656Z,0.67
2022-09-22T08:21:27.691Z,0.63
2022-09-22T08:23:54.993Z,0.50
2022-09-22T08:26:26.073Z,0.77
2022-09-22T08:28:54.358Z,0.67
2022-09-22T08:31:22.626Z,0.57
2022-09-22T08:33:52.070Z,0.67
2022-09-22T08:36:18.687Z,0.60
2022-09-22T08:38:49.467Z,0.60
2022-09-22T08:41:27.724Z,0.60
2022-09-22T08:43:57.575Z,0.37
2022-09-22T08:46:44.162Z,0.60
2022-09-22T08:49:44.308Z,0.60
2022-09-22T08:52:39.012Z,0.63
2022-09-22T08:55:11.993Z,0.63
2022-09-22T08:57:47.699Z,0.80
2022-09-22T09:00:17.449Z,0.50
2022-09-22T09:03:05.725Z,1.83
2022-09-22T09:05:54.602Z,1.27
2022-09-22T09:08:42.759Z,0.70
2022-09-22T09:11:36.418Z,0.80
2022-09-22T09:14:24.373Z,0.90
2022-09-22T09:17:09.071Z,0.80
2022-09-22T09:19:43.795Z,0.80
2022-09-22T09:22:32.754Z,0.70
2022-09-22T09:25:24.420Z,0.77
2022-09-22T09:27:58.284Z,0.70
2022-09-22T09:30:25.182Z,0.80
2022-09-22T09:32:59.399Z,0.70
2022-09-22T09:35:38.265Z,0.83
2022-09-22T09:38:14.130Z,0.90
2022-09-22T09:40:41.273Z,0.80
2022-09-22T09:43:09.266Z,0.97
2022-09-22T09:45:54.357Z,0.60
2022-09-22T09:48:43.390Z,0.60
2022-09-22T09:51:14.291Z,0.60
2022-09-22T09:53:46.481Z,1.07
2022-09-22T09:56:24.297Z,1.10
2022-09-22T09:59:30.463Z,0.50
2022-09-22T10:01:57.825Z,0.93
2022-09-22T10:04:35.312Z,0.67
2022-09-22T10:07:16.713Z,0.40
2022-09-22T10:09:44.648Z,0.50
2022-09-22T10:12:32.877Z,0.50
2022-09-22T10:15:01.506Z,0.63
2022-09-22T10:17:42.516Z,1.00
2022-09-22T10:20:26.454Z,0.50
2022-09-22T10:22:54.542Z,0.50
2022-09-22T10:25:34.098Z,0.40
2022-09-22T10:28:16.149Z,0.50
2022-09-22T10:30:43.843Z,0.70
2022-09-22T10:33:19.905Z,0.50
2022-09-22T10:36:07.856Z,0.60
2022-09-22T10:38:42.704Z,0.70
2022-09-22T10:41:27.380Z,0.60
2022-09-22T10:44:06.375Z,0.70
2022-09-22T10:46:50.845Z,0.70
2022-09-22T10:49:51.461Z,0.43
2022-09-22T10:52:51.319Z,0.53
2022-09-22T10:55:35.767Z,0.70
2022-09-22T10:58:07.181Z,0.60
2022-09-22T11:00:40.288Z,0.50
2022-09-22T11:03:28.039Z,0.50
2022-09-22T11:06:37.706Z,0.53
2022-09-22T11:09:56.482Z,0.53
2022-09-22T11:12:37.586Z,0.80
2022-09-22T11:15:26.340Z,0.63
2022-09-22T11:18:19.093Z,0.43
2022-09-22T11:20:51.281Z,0.50
2022-09-22T11:23:38.135Z,0.53
2022-09-22T11:26:29.121Z,0.57
2022-09-22T11:29:37.522Z,0.50
2022-09-22T11:32:49.141Z,0.53
2022-09-22T11:35:43.465Z,0.40
2022-09-22T11:38:24.082Z,0.40
2022-09-22T11:41:37.286Z,0.50
2022-09-22T11:44:24.802Z,0.47
2022-09-22T11:47:05.402Z,0.40
2022-09-22T11:49:37.821Z,0.50
2022-09-22T11:52:49.125Z,0.80
2022-09-22T11:55:41.999Z,0.53
2022-09-22T11:58:17.341Z,0.60
2022-09-22T12:01:17.983Z,0.70
2022-09-22T12:03:54.541Z,0.40
2022-09-22T12:06:26.331Z,0.50
2022-09-22T12:09:03.632Z,0.60
2022-09-22T12:11:35.838Z,0.60
2022-09-22T12:14:04.219Z,0.47
2022-09-22T12:16:42.056Z,0.40
2022-09-22T12:19:25.149Z,0.50
2022-09-22T12:22:28.405Z,0.40
2022-09-22T12:24:54.987Z,0.60
2022-09-22T12:27:23.071Z,0.47
2022-09-22T12:30:01.725Z,0.40
2022-09-22T12:32:41.095Z,0.40
2022-09-22T12:35:19.373Z,0.30
2022-09-22T12:37:46.062Z,0.30
2022-09-22T12:40:32.023Z,0.30
2022-09-22T12:43:01.989Z,0.30
2022-09-22T12:45:37.183Z,0.40
2022-09-22T12:48:13.058Z,0.33
2022-09-22T12:50:45.141Z,0.53
2022-09-22T12:53:20.882Z,0.33
2022-09-22T12:55:48.717Z,0.70
2022-09-22T12:58:21.285Z,0.50
2022-09-22T13:00:50.471Z,0.33
2022-09-22T13:03:26.212Z,0.20
2022-09-22T13:06:04.335Z,0.47
2022-09-22T13:08:33.499Z,0.20
2022-09-22T13:11:08.750Z,0.30
2022-09-22T13:13:43.823Z,0.50
2022-09-22T13:16:16.489Z,0.30
2022-09-22T13:18:51.635Z,0.33
2022-09-22T13:21:28.967Z,0.40
2022-09-22T13:23:55.623Z,0.30
2022-09-22T13:26:25.837Z,0.40
2022-09-22T13:29:11.054Z,0.40
2022-09-22T13:31:55.578Z,0.30
2022-09-22T13:34:29.570Z,0.43
2022-09-22T13:37:00.497Z,0.30
2022-09-22T13:39:42.252Z,0.40
2022-09-22T13:42:27.312Z,0.40
2022-09-22T13:45:06.556Z,0.37
2022-09-22T13:47:35.253Z,0.50
2022-09-22T13:50:07.031Z,0.43
2022-09-22T13:52:38.418Z,0.30
2022-09-22T13:55:37.400Z,0.30
2022-09-22T13:58:14.735Z,0.40
2022-09-22T14:01:11.574Z,0.40
2022-09-22T14:03:38.243Z,0.43
2022-09-22T14:06:09.447Z,0.40
2022-09-22T14:08:36.669Z,0.30
2022-09-22T14:11:06.936Z,0.43
2022-09-22T14:14:06.926Z,0.60
2022-09-22T14:17:08.103Z,0.50
2022-09-22T14:19:45.698Z,0.40
2022-09-22T14:22:27.470Z,0.50
2022-09-22T14:25:00.290Z,0.50
2022-09-22T14:27:29.007Z,0.53
2022-09-22T14:29:56.370Z,0.40
2022-09-22T14:32:37.928Z,0.37
2022-09-22T14:35:08.736Z,0.40
2022-09-22T14:37:43.472Z,0.50
2022-09-22T14:40:19.729Z,0.40
2022-09-22T14:42:58.050Z,0.60
2022-09-22T14:45:26.051Z,2.67
2022-09-22T14:48:18.745Z,0.80
2022-09-22T14:51:06.788Z,0.70
2022-09-22T14:53:40.885Z,0.47
2022-09-22T14:56:17.306Z,0.50
2022-09-22T14:58:50.593Z,0.67
2022-09-22T15:01:40.745Z,0.50
2022-09-22T15:04:13.522Z,0.60
2022-09-22T15:06:40.326Z,0.50
2022-09-22T15:09:13.347Z,0.47
2022-09-22T15:12:03.619Z,0.60
2022-09-22T15:14:44.341Z,0.70
2022-09-22T15:17:53.564Z,0.60
2022-09-22T15:20:22.001Z,0.73
2022-09-22T15:22:49.116Z,0.40
2022-09-22T15:25:16.747Z,0.60
2022-09-22T15:27:44.171Z,0.63
2022-09-22T15:30:15.897Z,0.50
2022-09-22T15:32:45.329Z,0.50
2022-09-22T15:35:12.710Z,0.43
2022-09-22T15:37:42.178Z,0.50
2022-09-22T15:40:21.433Z,0.40
2022-09-22T15:43:11.299Z,0.50
2022-09-22T15:45:37.371Z,0.43
2022-09-22T15:48:04.243Z,0.47
2022-09-22T15:50:31.005Z,0.67
2022-09-22T15:52:57.758Z,0.60
2022-09-22T15:55:25.183Z,0.53
2022-09-22T15:57:55.350Z,0.83
2022-09-22T16:00:27.607Z,0.30
2022-09-22T16:02:54.738Z,0.50
2022-09-22T16:05:21.515Z,0.60
2022-09-22T16:07:52.836Z,0.80
2022-09-22T16:10:23.683Z,0.67
2022-09-22T16:12:50.757Z,0.53
2022-09-22T16:15:17.738Z,0.60
2022-09-22T16:17:46.065Z,0.60
2022-09-22T16:20:15.606Z,0.50
2022-09-22T16:22:42.998Z,0.70
2022-09-22T16:25:11.658Z,0.50
2022-09-22T16:27:38.908Z,1.07
2022-09-22T16:30:06.273Z,1.00
2022-09-22T16:32:36.289Z,1.33
2022-09-22T16:35:03.792Z,0.73
2022-09-22T16:37:30.438Z,0.90
2022-09-22T16:39:57.058Z,1.07
2022-09-22T16:42:25.568Z,1.90
2022-09-22T16:44:52.249Z,1.63
2022-09-22T16:47:21.198Z,1.80
2022-09-22T16:49:49.608Z,1.23
2022-09-22T16:52:16.770Z,1.53
2022-09-22T16:54:44.117Z,1.53
2022-09-22T16:57:10.768Z,1.30
2022-09-22T16:59:38.094Z,1.20
2022-09-22T17:02:04.857Z,0.90
2022-09-22T17:04:32.425Z,1.03
2022-09-22T17:06:59.270Z,1.33
2022-09-22T17:09:25.982Z,1.17
2022-09-22T17:11:53.648Z,1.00
2022-09-22T17:14:22.148Z,1.13
2022-09-22T17:16:52.256Z,1.60
2022-09-22T17:19:23.184Z,1.73
2022-09-22T17:21:52.823Z,1.20
2022-09-22T17:24:20.022Z,1.20
2022-09-22T17:26:49.522Z,1.10
2022-09-22T17:29:25.146Z,1.00
2022-09-22T17:31:57.431Z,1.13
2022-09-22T17:34:25.559Z,1.00
2022-09-22T17:36:55.439Z,1.17
2022-09-22T17:39:24.207Z,1.50
2022-09-22T17:41:50.843Z,1.20
2022-09-22T17:44:21.268Z,1.30
2022-09-22T17:47:11.525Z,1.00
2022-09-22T17:49:57.958Z,1.10
2022-09-22T17:52:40.167Z,1.20
2022-09-22T17:55:21.735Z,1.30
2022-09-22T17:57:49.823Z,1.20
2022-09-22T18:00:21.908Z,1.20
2022-09-22T18:02:50.097Z,1.13
2022-09-22T18:05:22.719Z,2.57
2022-09-22T18:07:53.538Z,1.63
2022-09-22T18:10:20.875Z,1.50
2022-09-22T18:12:47.510Z,1.27
2022-09-22T18:15:15.115Z,1.37
2022-09-22T18:17:43.092Z,1.60
2022-09-22T18:20:15.648Z,1.47
2022-09-22T18:22:47.912Z,1.20
2022-09-22T18:25:16.625Z,1.20
2022-09-22T18:27:46.191Z,1.30
2022-09-22T18:30:15.890Z,1.40
2022-09-22T18:32:42.819Z,1.13
2022-09-22T18:35:09.785Z,1.20
2022-09-22T18:37:36.353Z,1.40
2022-09-22T18:40:03.714Z,1.00
2022-09-22T18:42:32.818Z,1.30
2022-09-22T18:44:59.496Z,1.17
2022-09-22T18:47:26.351Z,1.30
2022-09-22T18:49:52.955Z,1.20
2022-09-22T18:52:24.529Z,1.20
2022-09-22T18:54:55.798Z,1.20
2022-09-22T18:57:25.687Z,1.00
2022-09-22T18:59:54.011Z,1.97
2022-09-22T19:02:21.606Z,2.60
2022-09-22T19:04:49.206Z,1.40
2022-09-22T19:07:36.633Z,1.50
2022-09-22T19:10:08.394Z,1.30
2022-09-22T19:12:39.640Z,1.30
2022-09-22T19:15:15.479Z,1.70
2022-09-22T19:17:46.608Z,1.50
2022-09-22T19:20:21.007Z,1.53
2022-09-22T19:22:49.378Z,1.23
2022-09-22T19:25:16.381Z,1.60
2022-09-22T19:27:43.046Z,1.50
2022-09-22T19:30:11.011Z,1.47
2022-09-22T19:32:38.164Z,1.40
2022-09-22T19:35:06.646Z,1.50
2022-09-22T19:37:33.425Z,1.20
2022-09-22T19:40:00.084Z,1.40
2022-09-22T19:42:28.484Z,1.30
2022-09-22T19:44:55.154Z,2.50
2022-09-22T19:47:21.818Z,0.83
2022-09-22T19:49:48.690Z,1.40
2022-09-22T19:52:15.326Z,1.60
2022-09-22T19:54:42.003Z,1.20
2022-09-22T19:57:08.755Z,1.00
2022-09-22T19:59:35.444Z,1.47
2022-09-22T20:02:03.823Z,1.40
2022-09-22T20:04:34.357Z,1.43
2022-09-22T20:07:01.566Z,1.30
2022-09-22T20:09:28.190Z,1.10
2022-09-22T20:11:54.879Z,1.03
2022-09-22T20:14:22.570Z,1.00
2022-09-22T20:17:02.583Z,1.00
2022-09-22T20:19:31.596Z,1.30
2022-09-22T20:22:24.066Z,1.00
2022-09-22T20:24:55.686Z,1.20
2022-09-22T20:27:24.043Z,1.50
2022-09-22T20:29:55.063Z,1.33
2022-09-22T20:32:24.260Z,1.20
2022-09-22T20:34:51.534Z,1.50
2022-09-22T20:37:18.151Z,1.80
2022-09-22T20:39:44.777Z,1.70
2022-09-22T20:42:13.546Z,1.87
2022-09-22T20:44:42.373Z,1.80
2022-09-22T20:47:21.304Z,1.90
2022-09-22T20:49:52.091Z,1.87
2022-09-22T20:52:20.475Z,1.67
2022-09-22T20:54:49.938Z,1.80
2022-09-22T20:57:17.046Z,1.40
2022-09-22T20:59:46.016Z,1.40
2022-09-22T21:02:15.880Z,1.93
2022-09-22T21:04:42.663Z,1.80
2022-09-22T21:07:10.216Z,2.47
2022-09-22T21:09:57.591Z,2.40
2022-09-22T21:12:31.061Z,1.30
2022-09-22T21:14:58.447Z,1.10
2022-09-22T21:17:26.210Z,1.30
2022-09-22T21:19:56.022Z,1.30
2022-09-22T21:22:22.686Z,1.13
2022-09-22T21:24:49.358Z,1.20
2022-09-22T21:27:16.087Z,1.40
2022-09-22T21:29:42.770Z,1.30
2022-09-22T21:32:09.619Z,1.30
2022-09-22T21:34:36.629Z,1.00
2022-09-22T21:37:06.754Z,1.17
2022-09-22T21:39:33.331Z,1.10
2022-09-22T21:42:00.006Z,1.10
2022-09-22T21:44:26.599Z,1.10
2022-09-22T21:46:54.233Z,0.83
2022-09-22T21:49:20.817Z,1.13
2022-09-22T21:51:50.359Z,1.00
2022-09-22T21:54:19.950Z,0.90
2022-09-22T21:56:46.994Z,0.90
2022-09-22T21:59:14.198Z,0.80
2022-09-22T22:01:45.149Z,1.07
2022-09-22T22:04:15.147Z,1.20
2022-09-22T22:06:46.798Z,1.07
2022-09-22T22:09:19.382Z,0.97
2022-09-22T22:11:55.645Z,0.80
2022-09-22T22:14:24.249Z,1.20
2022-09-22T22:16:53.091Z,1.00
2022-09-22T22:19:22.267Z,0.90
2022-09-22T22:21:50.774Z,0.83
2022-09-22T22:24:26.203Z,0.90
2022-09-22T22:26:58.208Z,1.10
2022-09-22T22:29:26.772Z,1.00
2022-09-22T22:31:53.863Z,1.13
2022-09-22T22:34:22.693Z,0.80
2022-09-22T22:36:49.684Z,0.90
2022-09-22T22:39:16.507Z,1.20
2022-09-22T22:41:43.171Z,1.20
2022-09-22T22:44:10.014Z,2.27
2022-09-22T22:46:37.371Z,2.00
2022-09-22T22:49:07.181Z,1.60
2022-09-22T22:51:37.340Z,1.40
2022-09-22T22:54:05.004Z,1.30
2022-09-22T22:56:32.436Z,1.40
2022-09-22T22:58:59.553Z,1.20
2022-09-22T23:01:29.890Z,1.00
2022-09-22T23:04:02.223Z,1.00
2022-09-22T23:06:30.276Z,1.00
2022-09-22T23:08:57.483Z,1.27
2022-09-22T23:11:35.679Z,1.20
2022-09-22T23:14:03.800Z,1.00
2022-09-22T23:16:41.711Z,0.80
2022-09-22T23:19:11.507Z,0.90
2022-09-22T23:21:38.548Z,0.97
2022-09-22T23:24:05.666Z,1.10
2022-09-22T23:26:37.602Z,1.13
2022-09-22T23:29:13.409Z,0.90
2022-09-22T23:31:40.047Z,1.10
2022-09-22T23:34:09.622Z,1.00
2022-09-22T23:36:36.394Z,1.07
2022-09-22T23:39:04.794Z,1.00
2022-09-22T23:41:34.144Z,1.20
2022-09-22T23:44:01.209Z,0.90
2022-09-22T23:46:27.993Z,1.20
2022-09-22T23:48:55.739Z,1.07
2022-09-22T23:51:22.928Z,1.07
2022-09-22T23:53:49.754Z,0.90
2022-09-22T23:56:16.602Z,0.80
2022-09-22T23:58:43.238Z,0.80
